Nissho Maru — JD2650 — position and weather

sailwx.info

Track history (hours):
 
Tides and Currents Weather Stations Pressure Air Temp Water Temp Dewpoint Dewpoint Depression Visibility Wind Speed Wind Dir Waves Ship Positions

Nissho Maru

Last reported at 2018-Apr-22 19:48 UTC. Time now 2018-Apr-23 11:37 UTC.
Position N 35°04' E 140°20'.

Length 75 m; draft 4.6 m.

Type: Cargo ship. MMSI: 431000572.

Date/timePositionNaut miles runAvg speedWind from/ knotsBaromVisibWave heightAir tempDewpointWater temp
2018-Apr-22 19:48N 35°04' E 140°20'711.9
2018-Apr-22 19:12N 35°01' E 140°12'311.5
2018-Apr-22 18:55N 34°59' E 140°09'511.4
2018-Apr-22 18:27N 34°56' E 140°04'1211.7
2018-Apr-22 17:25N 34°51' E 139°50'511.7
2018-Apr-22 17:00N 34°55' E 139°46'611.9
2018-Apr-22 16:30N 35°00' E 139°44'611.3
2018-Apr-22 16:00N 35°06' E 139°45'611.3
2018-Apr-22 15:31N 35°11' E 139°46'611.2
2018-Apr-22 15:00N 35°17' E 139°45'611.3
2018-Apr-22 14:30N 35°22' E 139°42'510.8
2018-Apr-22 14:01N 35°26' E 139°46'611.0
2018-Apr-22 13:30N 35°30' E 139°52'611.2
2018-Apr-22 13:01N 35°32' E 139°58'611.0
2018-Apr-22 12:30N 35°35' E 140°04'2 3.0
2018-Apr-22 11:59N 35°36' E 140°05'0 0.0
2018-Apr-22 11:29N 35°36' E 140°05'0 0.0
2018-Apr-22 10:59N 35°36' E 140°05'0 0.0
2018-Apr-22 10:29N 35°36' E 140°05'0 0.0
2018-Apr-22 09:59N 35°36' E 140°05'0 0.0
2018-Apr-22 09:29N 35°36' E 140°05'0 0.0
2018-Apr-22 08:59N 35°36' E 140°05'0 0.0
2018-Apr-22 08:29N 35°36' E 140°05'0 0.0
2018-Apr-22 07:59N 35°36' E 140°05'0 0.1
2018-Apr-22 07:29N 35°36' E 140°05'0 0.1
2018-Apr-22 06:59N 35°36' E 140°05'0 0.0
2018-Apr-22 06:29N 35°36' E 140°05'0 0.1
2018-Apr-22 05:59N 35°36' E 140°05'0 0.1
2018-Apr-22 05:29N 35°36' E 140°05'0 0.0
2018-Apr-22 04:59N 35°36' E 140°05'0 0.1
2018-Apr-22 04:29N 35°36' E 140°05'4 7.2
2018-Apr-22 04:00N 35°34' E 140°02'612.4
2018-Apr-22 03:31N 35°31' E 139°56'612.1
2018-Apr-22 03:00N 35°27' E 139°50'612.0
2018-Apr-22 02:31N 35°22' E 139°45'510.8
2018-Apr-22 02:00N 35°17' E 139°46'611.7
2018-Apr-22 01:30N 35°11' E 139°47'612.4
2018-Apr-22 01:00N 35°05' E 139°45'612.2
2018-Apr-22 00:29N 34°58' E 139°44'510.8
2018-Apr-22 00:00N 34°54' E 139°47'10 9.7
2018-Apr-21 22:58N 34°54' E 139°59'711.5
2018-Apr-21 22:23N 34°57' E 140°06'511.1
2018-Apr-21 21:56N 35°00' E 140°11'611.2
2018-Apr-21 21:24N 35°03' E 140°18'  
Track history (hours):
 
Tides and Currents Weather Stations Pressure Air Temp Water Temp Dewpoint Dewpoint Depression Visibility Wind Speed Wind Dir Waves Ship Positions

Nissho Maru

Last reported at 2018-Apr-22 19:48 UTC. Time now 2018-Apr-23 11:37 UTC.
Position N 35°04' E 140°20'.

Length 75 m; draft 4.6 m.

Type: Cargo ship. MMSI: 431000572.

Date/timePositionNaut miles runAvg speedWind from/ knotsBaromVisibWave heightAir tempDewpointWater temp
2018-Apr-22 19:48N 35°04' E 140°20'711.9
2018-Apr-22 19:12N 35°01' E 140°12'311.5
2018-Apr-22 18:55N 34°59' E 140°09'511.4
2018-Apr-22 18:27N 34°56' E 140°04'1211.7
2018-Apr-22 17:25N 34°51' E 139°50'511.7
2018-Apr-22 17:00N 34°55' E 139°46'611.9
2018-Apr-22 16:30N 35°00' E 139°44'611.3
2018-Apr-22 16:00N 35°06' E 139°45'611.3
2018-Apr-22 15:31N 35°11' E 139°46'611.2
2018-Apr-22 15:00N 35°17' E 139°45'611.3
2018-Apr-22 14:30N 35°22' E 139°42'510.8
2018-Apr-22 14:01N 35°26' E 139°46'611.0
2018-Apr-22 13:30N 35°30' E 139°52'611.2
2018-Apr-22 13:01N 35°32' E 139°58'611.0
2018-Apr-22 12:30N 35°35' E 140°04'2 3.0
2018-Apr-22 11:59N 35°36' E 140°05'0 0.0
2018-Apr-22 11:29N 35°36' E 140°05'0 0.0
2018-Apr-22 10:59N 35°36' E 140°05'0 0.0
2018-Apr-22 10:29N 35°36' E 140°05'0 0.0
2018-Apr-22 09:59N 35°36' E 140°05'0 0.0
2018-Apr-22 09:29N 35°36' E 140°05'0 0.0
2018-Apr-22 08:59N 35°36' E 140°05'0 0.0
2018-Apr-22 08:29N 35°36' E 140°05'0 0.0
2018-Apr-22 07:59N 35°36' E 140°05'0 0.1
2018-Apr-22 07:29N 35°36' E 140°05'0 0.1
2018-Apr-22 06:59N 35°36' E 140°05'0 0.0
2018-Apr-22 06:29N 35°36' E 140°05'0 0.1
2018-Apr-22 05:59N 35°36' E 140°05'0 0.1
2018-Apr-22 05:29N 35°36' E 140°05'0 0.0
2018-Apr-22 04:59N 35°36' E 140°05'0 0.1
2018-Apr-22 04:29N 35°36' E 140°05'4 7.2
2018-Apr-22 04:00N 35°34' E 140°02'612.4
2018-Apr-22 03:31N 35°31' E 139°56'612.1
2018-Apr-22 03:00N 35°27' E 139°50'612.0
2018-Apr-22 02:31N 35°22' E 139°45'510.8
2018-Apr-22 02:00N 35°17' E 139°46'611.7
2018-Apr-22 01:30N 35°11' E 139°47'612.4
2018-Apr-22 01:00N 35°05' E 139°45'612.2
2018-Apr-22 00:29N 34°58' E 139°44'510.8
2018-Apr-22 00:00N 34°54' E 139°47'10 9.7
2018-Apr-21 22:58N 34°54' E 139°59'711.5
2018-Apr-21 22:23N 34°57' E 140°06'511.1
2018-Apr-21 21:56N 35°00' E 140°11'611.2
2018-Apr-21 21:24N 35°03' E 140°18'  

Dump ship's entire track history